Adams, NE

10:14 AM CDT on May 28, 2015 (GMT -0500)
KNEROCA2 | | Change Station
CLOSE
Current Station
Personal Weather Station
Location: Roca, NE
Elevation: 1279 ft
Nearby Weather Stations

Elev 1279 ft 40.64 °N, 96.69 °W | Updated 4 minutes ago

Rain
Rain
63.6 °F
Feels Like 63.6 °F
N
0.0
Wind Variable Wind from ESE
Gusts 1.0 mph

Today
High -- | Low -- °F
--% Chance of Precip.
Yesterday
High -- | Low -- °F
Precip. -- in
5:59 AM 8:47 PM
Waxing Gibbous, 76% visible
Pressure 30.02 in
Visibility 10.0 miles
Clouds Scattered Clouds 500 ft
Overcast 10000 ft
Dew Point 62 °F
Humidity 95%
Rainfall 0.25 in
Snow Depth Not available.
UV 2 out of 12
Pollen 6.10 out of 12
Air Quality Not available.
Flu Activity No Activity
METAR KBIE 281455Z AUTO 14004KT 10SM SCT005 OVC100 18/17 A3002 RMK AO2 60002 T01750168

More Conditions Fewer Conditions

Pressure 30.02 in
Visibility 10.0 miles
Clouds Scattered Clouds 500 ft
Overcast 10000 ft
Dew Point 62 °F
Humidity 95%
Rainfall 0.25 in
Snow Depth Not available.
UV 2 out of 12
Pollen 6.10 out of 12
Air Quality Not available.
Flu Activity No Activity
METAR KBIE 281455Z AUTO 14004KT 10SM SCT005 OVC100 18/17 A3002 RMK AO2 60002 T01750168

More Conditions Fewer Conditions

10-Day Weather Forecast

Almanac

Astronomy

May. 28, 2015 Rise Set
Actual Time
Civil Twilight
Nautical Twilight
Astronomical Twilight
Moon
Length of Visible Light
Length of Day
Tomorrow will be .
, % of the Moon is Illuminated

Today's Extremes

State Highs State Lows

Community

WunderPhotos

Upload Photos

1,824,996 photos uploaded!

WunderBlogs® & News

Nearby

Air Quality

  Air Quality AQ Index Pollutant
Not available.

Snow Depth

Station Depth Elevation

Earthquake Activity

City Distance Mag. Time & Date
Minimum magnitude displayed is 2.5.

Coastal Water Temperatures

Place Temperature

Stations

Nearby Weather Stations

Station Location Temp. Windchill Dew Point Humidity Wind Precip. Elev Updated Type